Time;durP1;ratioP1;P1;durP2;ratioP2;P2;SDS_P1;SDS_P2;PMS_P1;PMS_P2;Temp;Humidity;BMP_temperature;BMP_pressure;BME280_temperature;BME280_humidity;BME280_pressure;Samples;Min_cycle;Max_cycle;Signal;HPM_P1;HPM_P2
2022/10/02 00:01:02;;;;;;;26.08;11.90;;;;;;;12.26;100.00;101442.19;6179723;23;20001;-91
2022/10/02 00:03:33;;;;;;;31.80;14.05;;;;;;;12.28;100.00;101442.16;6182111;23;20009;-90
2022/10/02 00:06:08;;;;;;;29.48;13.75;;;;;;;12.32;100.00;101446.41;6181604;23;20000;-92
2022/10/02 00:08:40;;;;;;;22.58;13.18;;;;;;;12.29;100.00;101436.06;6180021;23;20001;-91
2022/10/02 00:11:13;;;;;;;24.05;12.30;;;;;;;12.35;100.00;101446.31;6181518;23;20096;-91
2022/10/02 00:13:47;;;;;;;22.20;12.13;;;;;;;12.34;100.00;101452.44;6182150;23;20327;-91
2022/10/02 00:16:34;;;;;;;28.97;12.87;;;;;;;12.33;100.00;101447.25;6180492;23;20005;-90
2022/10/02 00:19:01;;;;;;;26.50;13.10;;;;;;;12.25;100.00;101445.66;6180415;23;20260;-92
2022/10/02 00:21:46;;;;;;;24.20;13.13;;;;;;;12.23;100.00;101451.78;6180030;23;20167;-91
2022/10/02 00:24:21;;;;;;;29.08;14.05;;;;;;;12.13;100.00;101445.06;6181589;23;20005;-91
2022/10/02 00:26:55;;;;;;;27.63;14.05;;;;;;;12.07;100.00;101451.25;6180333;23;20009;-91
2022/10/02 00:29:30;;;;;;;;;;;;;;;12.07;100.00;101450.41;6180392;23;19997;-89
2022/10/02 00:32:30;;;;;;;28.35;12.65;;;;;;;11.92;100.00;101441.16;6181371;23;19919;-88
2022/10/02 00:35:17;;;;;;;24.73;12.07;;;;;;;11.86;100.00;101447.34;6064304;23;20025;-89
2022/10/02 00:38:14;;;;;;;24.25;11.55;;;;;;;11.76;100.00;101450.97;6175514;23;20001;-89
2022/10/02 00:41:08;;;;;;;27.45;11.50;;;;;;;11.71;100.00;101446.72;6181811;23;20036;-89
2022/10/02 00:44:08;;;;;;;24.25;10.27;;;;;;;11.63;100.00;101446.00;6182812;23;20020;-88
2022/10/02 00:46:55;;;;;;;23.63;7.60;;;;;;;11.63;100.00;101451.19;6166630;23;20008;-89
2022/10/02 00:49:34;;;;;;;19.30;7.57;;;;;;;11.63;100.00;101452.06;6181568;23;20032;-89
2022/10/02 00:52:43;;;;;;;21.60;7.45;;;;;;;11.64;100.00;101453.78;6178948;23;20009;-89
2022/10/02 00:56:05;;;;;;;18.23;6.05;;;;;;;11.67;100.00;101450.28;6180643;23;19997;-88
2022/10/02 00:58:45;;;;;;;18.67;5.47;;;;;;;11.67;100.00;101451.09;6090540;23;20424;-91
2022/10/02 01:01:14;;;;;;;23.30;5.18;;;;;;;11.68;100.00;101446.78;6067359;23;20010;-91
2022/10/02 01:03:43;;;;;;;24.73;5.43;;;;;;;11.66;100.00;101448.56;6144714;23;20005;-90
2022/10/02 01:06:09;;;;;;;21.65;4.60;;;;;;;11.63;100.00;101444.28;6181967;23;20001;-91
2022/10/02 01:08:37;;;;;;;23.52;5.25;;;;;;;11.63;100.00;101443.41;6183434;23;20005;-91
2022/10/02 01:11:04;;;;;;;17.70;4.70;;;;;;;11.61;100.00;101438.25;6182943;23;20001;-90
2022/10/02 01:13:30;;;;;;;21.58;4.82;;;;;;;11.58;100.00;101437.44;6182663;23;20375;-91
2022/10/02 01:15:59;;;;;;;16.40;5.10;;;;;;;11.55;100.00;101433.16;6183181;23;20471;-91
2022/10/02 01:18:27;;;;;;;26.98;4.78;;;;;;;11.63;100.00;101440.81;6183265;23;20005;-91
2022/10/02 01:21:01;;;;;;;23.63;4.80;;;;;;;11.55;100.00;101414.97;6182249;23;20011;-91
2022/10/02 01:23:40;;;;;;;18.63;4.93;;;;;;;11.62;100.00;101426.97;6182203;23;20005;-92
2022/10/02 01:26:05;;;;;;;28.60;5.70;;;;;;;11.66;100.00;101438.19;6181572;23;20009;-91
2022/10/02 01:28:31;;;;;;;22.13;4.55;;;;;;;11.66;100.00;101430.38;6183087;23;20008;-88
2022/10/02 01:31:03;;;;;;;26.63;4.78;;;;;;;11.74;100.00;101438.91;6182027;23;20044;-89
2022/10/02 01:33:30;;;;;;;24.15;4.82;;;;;;;11.77;100.00;101436.25;6180773;23;20036;-87
2022/10/02 01:35:56;;;;;;;20.75;4.15;;;;;;;11.79;100.00;101437.94;6180103;23;20057;-89
2022/10/02 01:38:22;;;;;;;22.67;4.50;;;;;;;11.79;100.00;101443.16;6180902;23;20008;-88
2022/10/02 01:40:48;;;;;;;27.95;4.60;;;;;;;11.83;100.00;101456.91;6180774;23;20012;-88
2022/10/02 01:43:18;;;;;;;21.15;4.82;;;;;;;11.80;100.00;101441.41;6180449;23;20460;-89
2022/10/02 01:45:58;;;;;;;22.52;4.40;;;;;;;11.86;100.00;101451.69;6182213;23;20051;-89
2022/10/02 01:48:53;;;;;;;21.50;4.47;;;;;;;11.86;100.00;101452.53;6180914;23;20104;-88
2022/10/02 01:51:27;;;;;;;26.63;4.68;;;;;;;11.92;100.00;101450.69;6179510;23;20008;-88
2022/10/02 01:54:01;;;;;;;;;;;;;;;11.93;100.00;101442.88;6180790;23;20012;-88
2022/10/02 01:56:47;;;;;;;21.80;4.18;;;;;;;11.92;100.00;101446.34;6182349;23;19908;-88
2022/10/02 01:59:28;;;;;;;22.10;4.05;;;;;;;11.94;100.00;101447.16;6182085;23;20009;-88
2022/10/02 02:02:13;;;;;;;22.42;4.22;;;;;;;11.97;100.00;101441.06;6182363;23;20001;-88
2022/10/02 02:04:53;;;;;;;26.65;4.25;;;;;;;11.98;100.00;101434.97;6179434;23;20009;-89
2022/10/02 02:07:29;;;;;;;25.55;4.13;;;;;;;12.00;100.00;101451.41;6182397;23;20028;-88
2022/10/02 02:10:20;;;;;;;29.02;4.82;;;;;;;12.01;100.00;101453.13;6181794;23;20001;-88
2022/10/02 02:12:49;;;;;;;26.25;4.60;;;;;;;12.01;100.00;101453.94;6181242;23;20005;-88
2022/10/02 02:15:28;;;;;;;24.17;4.47;;;;;;;12.05;100.00;101462.56;6180817;23;20427;-88
2022/10/02 02:18:05;;;;;;;28.20;4.95;;;;;;;12.06;100.00;101457.34;6182424;23;20024;-88
2022/10/02 02:20:37;;;;;;;26.65;4.90;;;;;;;12.08;100.00;101460.72;6181795;23;20083;-88
2022/10/02 02:23:13;;;;;;;25.88;4.55;;;;;;;12.08;100.00;101462.47;6181134;23;20001;-89
2022/10/02 02:25:44;;;;;;;23.45;4.05;;;;;;;12.10;100.00;101466.78;6181155;23;20007;-89
2022/10/02 02:28:13;;;;;;;20.65;3.83;;;;;;;12.13;100.00;101464.13;6181564;23;20013;-90
2022/10/02 02:30:42;;;;;;;20.50;3.30;;;;;;;12.13;100.00;101458.06;6181236;23;20013;-88
2022/10/02 02:33:16;;;;;;;27.48;4.57;;;;;;;12.14;100.00;101457.19;6182130;23;20410;-88
2022/10/02 02:35:48;;;;;;;17.45;3.85;;;;;;;12.18;100.00;101464.03;6178608;23;20001;-89
2022/10/02 02:38:18;;;;;;;27.77;4.15;;;;;;;12.19;100.00;101460.53;6180743;23;20070;-89
2022/10/02 02:40:46;;;;;;;23.00;4.00;;;;;;;12.20;100.00;101457.06;6180961;23;20008;-89
2022/10/02 02:43:18;;;;;;;25.50;4.22;;;;;;;12.26;100.00;101460.38;6181508;23;20051;-88
2022/10/02 02:45:51;;;;;;;18.02;3.80;;;;;;;12.31;100.00;101456.81;6180060;23;20001;-88
2022/10/02 02:48:25;;;;;;;19.23;3.80;;;;;;;12.33;100.00;101461.09;6181329;23;20427;-88
2022/10/02 02:51:11;;;;;;;;;;;;;;;12.36;100.00;101463.63;6181348;23;20517;-88
2022/10/02 02:53:40;;;;;;;;;;;;;;;12.38;100.00;101469.66;6171942;23;19915;-88
2022/10/02 02:56:09;;;;;;;25.08;4.25;;;;;;;12.30;100.00;101458.56;6179910;23;19975;-89
2022/10/02 02:58:45;;;;;;;29.50;3.95;;;;;;;12.42;100.00;101465.28;6182245;23;20009;-89
2022/10/02 03:01:10;;;;;;;28.45;3.92;;;;;;;12.43;100.00;101473.00;6180112;23;20375;-89
2022/10/02 03:03:36;;;;;;;24.30;4.50;;;;;;;12.48;100.00;101466.00;6181863;23;20005;-89
2022/10/02 03:06:20;;;;;;;23.35;4.20;;;;;;;12.52;100.00;101467.63;6181353;23;20005;-89
2022/10/02 03:08:49;;;;;;;29.23;4.67;;;;;;;12.52;100.00;101459.81;6182247;23;20000;-91
2022/10/02 03:11:53;;;;;;;22.13;3.90;;;;;;;12.54;100.00;101442.44;6182655;23;20637;-91
2022/10/02 03:14:27;;;;;;;23.85;4.07;;;;;;;12.53;100.00;101455.47;6180635;23;20036;-92
2022/10/02 03:17:14;;;;;;;23.63;4.50;;;;;;;12.52;100.00;101458.97;6181203;23;20028;-92
2022/10/02 03:20:05;;;;;;;22.60;4.63;;;;;;;12.52;100.00;101457.22;6179394;23;20423;-91
2022/10/02 03:22:51;;;;;;;27.42;4.75;;;;;;;12.50;100.00;101456.38;6181932;23;20434;-91
2022/10/02 03:25:41;;;;;;;20.90;4.95;;;;;;;12.47;100.00;101458.22;6181264;23;20332;-91
2022/10/02 03:28:25;;;;;;;28.20;4.18;;;;;;;12.48;100.00;101468.59;6182510;23;20072;-91
2022/10/02 03:30:53;;;;;;;19.20;3.77;;;;;;;12.47;100.00;101468.63;6179955;23;20021;-92
2022/10/02 03:33:21;;;;;;;20.73;4.07;;;;;;;12.47;100.00;101464.28;6181555;23;20243;-91
2022/10/02 03:35:46;;;;;;;19.95;4.13;;;;;;;12.53;100.00;101469.34;6181640;23;20004;-92
2022/10/02 03:38:13;;;;;;;17.50;3.83;;;;;;;12.47;100.00;101458.22;6181990;23;20001;-88
2022/10/02 03:40:39;;;;;;;21.67;4.28;;;;;;;12.57;100.00;101470.97;6181844;23;20076;-89
2022/10/02 03:43:05;;;;;;;21.02;4.10;;;;;;;12.60;100.00;101464.84;6181796;23;20036;-88
2022/10/02 03:45:31;;;;;;;16.73;3.75;;;;;;;12.61;100.00;101464.84;6179858;23;20001;-88
2022/10/02 03:47:56;;;;;;;19.20;3.90;;;;;;;12.68;100.00;101475.97;6180636;23;20398;-88
2022/10/02 03:50:22;;;;;;;23.60;4.05;;;;;;;12.65;100.00;101476.88;6181226;23;20004;-88
2022/10/02 03:52:51;;;;;;;21.38;4.00;;;;;;;12.70;100.00;101475.91;6181844;23;20009;-88
2022/10/02 03:55:26;;;;;;;18.25;3.95;;;;;;;12.71;100.00;101481.06;6181532;23;20382;-88
2022/10/02 03:57:53;;;;;;;17.08;3.92;;;;;;;12.70;100.00;101468.94;6178841;23;20502;-89
2022/10/02 04:00:27;;;;;;;17.75;3.85;;;;;;;12.71;100.00;101477.63;6177097;23;20013;-88
2022/10/02 04:03:02;;;;;;;21.42;4.18;;;;;;;12.72;100.00;101480.19;6179631;23;20008;-89
2022/10/02 04:05:35;;;;;;;14.38;4.05;;;;;;;12.68;100.00;101478.56;6181552;23;20081;-89
2022/10/02 04:08:33;;;;;;;19.77;4.07;;;;;;;12.71;100.00;101478.47;6181879;23;20012;-89
2022/10/02 04:11:15;;;;;;;15.20;3.60;;;;;;;12.69;100.00;101480.28;6169108;23;20084;-89
2022/10/02 04:13:49;;;;;;;18.98;4.00;;;;;;;12.69;100.00;101477.66;6179914;23;20008;-90
2022/10/02 04:16:39;;;;;;;12.23;3.63;;;;;;;12.70;100.00;101479.34;6180960;23;20005;-90
2022/10/02 04:19:20;;;;;;;11.93;3.50;;;;;;;12.65;100.00;101469.06;6180963;23;20032;-89
2022/10/02 04:21:58;;;;;;;16.13;3.47;;;;;;;12.68;100.00;101469.91;6181066;23;20008;-89
2022/10/02 04:24:35;;;;;;;13.35;3.38;;;;;;;12.63;100.00;101457.81;6181136;23;20333;-89
2022/10/02 04:27:09;;;;;;;16.58;3.78;;;;;;;12.61;100.00;101459.63;6181476;23;20077;-89
2022/10/02 04:29:40;;;;;;;20.80;3.67;;;;;;;12.58;100.00;101464.88;6177371;23;20029;-89
2022/10/02 04:32:15;;;;;;;12.15;3.30;;;;;;;12.54;100.00;101465.00;6178804;23;20453;-88
2022/10/02 04:34:41;;;;;;;16.42;3.65;;;;;;;12.48;100.00;101465.13;6179502;23;20031;-90
2022/10/02 04:37:30;;;;;;;11.13;3.60;;;;;;;12.45;100.00;101463.44;6180716;23;20033;-90
2022/10/02 04:40:11;;;;;;;15.38;4.05;;;;;;;12.41;100.00;101471.34;6181541;23;20008;-92
2022/10/02 04:43:02;;;;;;;12.07;3.40;;;;;;;12.34;100.00;101469.78;6204522;23;20017;-92
2022/10/02 04:45:55;;;;;;;16.95;4.25;;;;;;;12.34;100.00;101486.22;6140097;23;20009;-91
2022/10/02 04:48:58;;;;;;;15.38;4.72;;;;;;;12.33;100.00;101507.03;6181682;23;20423;-93
2022/10/02 04:51:28;;;;;;;15.23;4.97;;;;;;;12.30;100.00;101509.69;6181099;23;20069;-91
2022/10/02 04:54:25;;;;;;;13.85;5.00;;;;;;;12.32;100.00;101503.59;6203014;23;20089;-92
2022/10/02 04:57:15;;;;;;;13.18;5.38;;;;;;;12.33;100.00;101507.03;6181377;23;19997;-92
2022/10/02 04:59:57;;;;;;;16.25;5.78;;;;;;;12.27;100.00;101508.88;6180259;23;20033;-93
2022/10/02 05:02:29;;;;;;;15.82;5.47;;;;;;;12.30;100.00;101512.28;6182021;23;20008;-92
2022/10/02 05:05:07;;;;;;;20.60;6.75;;;;;;;12.20;100.00;101490.84;6179897;23;20422;-91
2022/10/02 05:07:32;;;;;;;13.40;5.95;;;;;;;12.26;100.00;101501.97;6180872;23;20012;-91
2022/10/02 05:09:57;;;;;;;16.92;6.38;;;;;;;12.25;100.00;101509.78;6178198;23;20005;-89
2022/10/02 05:12:31;;;;;;;21.93;6.63;;;;;;;12.21;100.00;101514.19;6179877;23;20115;-89
2022/10/02 05:15:20;;;;;;;16.00;7.28;;;;;;;12.20;100.00;101506.44;6179650;23;20552;-90
2022/10/02 05:18:20;;;;;;;16.67;6.97;;;;;;;12.22;100.00;101509.84;6180128;23;20005;-89
2022/10/02 05:21:00;;;;;;;19.25;7.18;;;;;;;12.22;100.00;101515.03;6174911;23;20573;-90
2022/10/02 05:24:04;;;;;;;24.48;7.28;;;;;;;12.25;100.00;101517.59;6180441;23;20071;-89
2022/10/02 05:26:51;;;;;;;22.53;7.47;;;;;;;12.27;100.00;101513.22;6182369;23;20058;-89
2022/10/02 05:29:26;;;;;;;21.98;7.28;;;;;;;12.29;100.00;101519.22;6180711;23;20013;-89
2022/10/02 05:32:13;;;;;;;20.25;7.60;;;;;;;12.30;100.00;101523.56;6182062;23;20017;-90
2022/10/02 05:34:51;;;;;;;22.50;8.05;;;;;;;12.26;100.00;101517.56;6182197;23;20439;-90
2022/10/02 05:37:41;;;;;;;24.60;8.27;;;;;;;12.32;100.00;101528.72;6180390;23;20116;-90
2022/10/02 05:40:35;;;;;;;24.10;9.38;;;;;;;12.30;100.00;101530.50;6183032;23;20009;-93
2022/10/02 05:43:05;;;;;;;29.70;9.02;;;;;;;12.25;100.00;101528.00;6180777;23;20004;-92
2022/10/02 05:45:37;;;;;;;24.38;8.50;;;;;;;12.27;100.00;101528.81;6180155;23;20001;-92
2022/10/02 05:48:17;;;;;;;26.80;9.50;;;;;;;12.21;100.00;101524.56;6181125;23;20079;-92
2022/10/02 05:50:48;;;;;;;32.97;10.50;;;;;;;12.25;100.00;101528.00;6181788;23;20001;-92
2022/10/02 05:53:36;;;;;;;29.48;10.07;;;;;;;12.20;100.00;101525.50;6186333;23;19997;-93
2022/10/02 05:56:05;;;;;;;27.92;10.02;;;;;;;12.26;100.00;101537.50;6183013;23;20009;-92
2022/10/02 05:58:37;;;;;;;36.85;10.85;;;;;;;12.31;100.00;101547.81;6180002;23;20096;-92
2022/10/02 06:01:09;;;;;;;31.73;10.63;;;;;;;12.24;100.00;101534.94;6181363;23;20005;-92
2022/10/02 06:03:43;;;;;;;30.95;10.68;;;;;;;12.33;100.00;101552.09;6181914;23;20313;-93
2022/10/02 06:06:20;;;;;;;32.95;11.38;;;;;;;12.44;100.00;101551.88;6179533;23;20080;-92
2022/10/02 06:08:49;;;;;;;35.42;11.07;;;;;;;12.40;100.00;101532.03;6181282;23;20005;-91
2022/10/02 06:11:32;;;;;;;25.25;10.65;;;;;;;12.51;100.00;101541.31;6180893;23;20032;-91
2022/10/02 06:14:34;;;;;;;27.30;10.32;;;;;;;12.45;100.00;101531.06;6180659;23;20012;-94
2022/10/02 06:17:24;;;;;;;35.83;10.95;;;;;;;12.58;100.00;101566.31;6157469;23;20044;-91
2022/10/02 06:20:04;;;;;;;25.65;9.93;;;;;;;12.57;100.00;101559.41;6179098;23;20013;-92
2022/10/02 06:23:09;;;;;;;30.58;11.02;;;;;;;12.58;100.00;101560.25;6178954;23;20012;-92
2022/10/02 06:25:46;;;;;;;;;;;;;;;12.71;100.00;101576.47;6180638;23;20017;-92
2022/10/02 06:28:28;;;;;;;31.77;10.20;;;;;;;12.74;100.00;101579.00;6179885;23;20290;-93
2022/10/02 06:31:20;;;;;;;32.63;10.38;;;;;;;12.78;100.00;101578.03;6180947;23;20521;-93
2022/10/02 06:33:45;;;;;;;29.80;10.05;;;;;;;12.81;100.00;101586.66;6179873;23;20005;-93
2022/10/02 06:36:57;;;;;;;29.60;10.20;;;;;;;12.86;100.00;101577.00;6180965;23;20027;-92
2022/10/02 06:39:30;;;;;;;31.63;10.02;;;;;;;12.93;100.00;101575.13;6182218;23;20019;-92
2022/10/02 06:42:28;;;;;;;33.33;9.65;;;;;;;12.97;100.00;101574.16;6182862;23;20001;-93
2022/10/02 06:45:34;;;;;;;32.85;8.90;;;;;;;13.04;100.00;101584.41;6182670;23;20051;-92
2022/10/02 06:48:09;;;;;;;36.75;9.70;;;;;;;13.02;100.00;101583.59;6177914;23;20420;-93
2022/10/02 06:50:46;;;;;;;30.27;9.13;;;;;;;13.14;100.00;101600.72;6180962;23;20379;-91
2022/10/02 06:53:38;;;;;;;30.15;8.68;;;;;;;13.17;100.00;101587.63;6182587;23;20001;-92
2022/10/02 06:56:43;;;;;;;25.52;7.95;;;;;;;13.22;100.00;101595.34;6183491;23;20423;-92
2022/10/02 06:59:18;;;;;;;31.17;9.02;;;;;;;13.30;100.00;101604.72;6182557;23;20001;-91
2022/10/02 07:02:00;;;;;;;30.05;8.30;;;;;;;13.36;100.00;101603.72;6181880;23;20024;-91
2022/10/02 07:04:34;;;;;;;32.85;7.95;;;;;;;13.39;100.00;101609.69;6182559;23;20004;-92
2022/10/02 07:07:19;;;;;;;29.30;7.40;;;;;;;13.44;100.00;101610.44;6182825;23;20005;-92
2022/10/02 07:10:07;;;;;;;27.40;6.70;;;;;;;13.48;100.00;101607.75;6181223;23;19996;-91
2022/10/02 07:12:52;;;;;;;29.08;6.57;;;;;;;13.50;100.00;101609.44;6182349;23;20005;-91
2022/10/02 07:15:44;;;;;;;25.02;7.03;;;;;;;13.51;100.00;101612.91;6182817;23;20008;-91
2022/10/02 07:18:31;;;;;;;29.27;6.60;;;;;;;13.55;100.00;101620.63;6181749;23;20059;-91
2022/10/02 07:21:20;;;;;;;22.50;6.30;;;;;;;13.60;100.00;101615.28;6181105;23;20009;-92
2022/10/02 07:24:03;;;;;;;25.90;5.95;;;;;;;13.63;100.00;101615.22;6183027;23;20001;-90
2022/10/02 07:26:44;;;;;;;25.25;6.07;;;;;;;13.68;100.00;101622.03;6182570;23;20005;-92
2022/10/02 07:29:19;;;;;;;23.70;6.35;;;;;;;13.71;100.00;101618.50;6182864;23;20016;-91
2022/10/02 07:32:21;;;;;;;25.27;6.70;;;;;;;13.76;100.00;101622.72;6179853;23;20020;-92
2022/10/02 07:35:18;;;;;;;20.55;7.30;;;;;;;13.77;100.00;101621.81;6183549;23;20001;-92
2022/10/02 07:37:46;;;;;;;24.15;7.57;;;;;;;13.82;100.00;101625.16;6181241;23;20582;-92
2022/10/02 07:40:21;;;;;;;23.10;8.18;;;;;;;13.89;100.00;101635.44;6182867;23;20001;-91
2022/10/02 07:42:50;;;;;;;24.13;8.43;;;;;;;13.95;100.00;101640.50;6180319;23;20005;-92
2022/10/02 07:45:36;;;;;;;23.85;8.60;;;;;;;14.02;100.00;101637.69;6180859;23;20017;-93
2022/10/02 07:48:07;;;;;;;23.20;8.93;;;;;;;14.09;100.00;101636.66;6182755;23;20009;-92
2022/10/02 07:50:39;;;;;;;23.42;8.63;;;;;;;14.18;100.00;101635.56;6180734;23;20055;-92
2022/10/02 07:53:27;;;;;;;24.17;9.48;;;;;;;14.29;100.00;101637.88;6182976;23;20004;-92
2022/10/02 07:55:55;;;;;;;31.70;10.32;;;;;;;14.38;100.00;101641.16;6181031;23;20593;-92
2022/10/02 07:58:30;;;;;;;24.08;10.10;;;;;;;14.47;100.00;101645.25;6183550;23;20011;-92
2022/10/02 08:01:01;;;;;;;24.73;10.25;;;;;;;14.47;100.00;101633.06;6183248;23;20001;-92
2022/10/02 08:03:48;;;;;;;26.52;10.85;;;;;;;14.58;100.00;101638.84;6181712;23;20005;-93
2022/10/02 08:06:15;;;;;;;24.45;10.48;;;;;;;14.61;100.00;101640.50;6182424;23;20009;-92
2022/10/02 08:08:47;;;;;;;30.77;10.88;;;;;;;14.68;100.00;101644.66;6183508;23;20005;-92
2022/10/02 08:11:22;;;;;;;24.10;10.60;;;;;;;14.67;100.00;101653.38;6181889;23;20561;-93
2022/10/02 08:13:51;;;;;;;;;;;;;;;14.79;100.00;101660.88;6181807;23;20001;-92
2022/10/02 08:16:21;;;;;;;26.80;10.30;;;;;;;14.69;100.00;101654.19;6182765;23;19930;-92
2022/10/02 08:18:54;;;;;;;23.77;10.63;;;;;;;14.80;100.00;101667.81;6182942;23;20592;-93
2022/10/02 08:21:23;;;;;;;26.23;10.40;;;;;;;14.84;100.00;101660.75;6180072;23;20013;-93
2022/10/02 08:24:01;;;;;;;26.15;10.85;;;;;;;14.92;100.00;101675.31;6181631;23;20009;-92
2022/10/02 08:26:42;;;;;;;27.98;10.38;;;;;;;14.98;100.00;101687.31;6180983;23;20062;-92
2022/10/02 08:29:15;;;;;;;27.90;10.25;;;;;;;15.03;100.00;101693.25;6182820;23;20489;-92
2022/10/02 08:31:41;;;;;;;25.30;10.60;;;;;;;15.06;100.00;101689.72;6180861;23;20025;-93
2022/10/02 08:34:17;;;;;;;25.15;10.80;;;;;;;15.11;100.00;101687.81;6182592;23;20241;-92
2022/10/02 08:37:04;;;;;;;22.88;10.30;;;;;;;15.12;100.00;101687.78;6179738;23;20087;-93
2022/10/02 08:40:07;;;;;;;25.02;10.13;;;;;;;15.20;100.00;101700.63;6181047;23;20036;-94
2022/10/02 08:42:44;;;;;;;22.80;9.38;;;;;;;15.25;100.00;101694.38;6180271;23;20326;-93
2022/10/02 08:45:25;;;;;;;21.42;8.90;;;;;;;15.27;100.00;101710.00;6178727;23;20005;-93
2022/10/02 08:48:30;;;;;;;25.20;8.85;;;;;;;15.33;100.00;101707.19;6181775;23;20009;-93
2022/10/02 08:51:14;;;;;;;24.92;8.52;;;;;;;15.33;100.00;101704.59;6179418;23;20305;-90
2022/10/02 08:54:03;;;;;;;22.52;8.05;;;;;;;15.38;100.00;101714.00;6179311;23;20012;-89
2022/10/02 08:57:00;;;;;;;24.00;7.90;;;;;;;15.44;100.00;101720.78;6176848;23;20008;-90
2022/10/02 08:59:51;;;;;;;22.25;6.97;;;;;;;15.45;100.00;101727.72;6177724;23;20005;-89
2022/10/02 09:02:54;;;;;;;19.08;6.72;;;;;;;15.45;100.00;101727.72;6180913;23;20005;-89
2022/10/02 09:05:47;;;;;;;21.30;6.63;;;;;;;15.45;100.00;101732.09;6180879;23;20009;-89
2022/10/02 09:08:34;;;;;;;21.05;6.88;;;;;;;15.41;100.00;101742.66;6180627;23;20005;-89
2022/10/02 09:11:08;;;;;;;15.88;6.28;;;;;;;15.39;100.00;101738.38;6181001;23;20012;-88
2022/10/02 09:14:22;;;;;;;17.63;6.35;;;;;;;15.36;100.00;101736.69;6182611;23;20476;-89
2022/10/02 09:17:07;;;;;;;17.30;6.05;;;;;;;15.34;100.00;101745.50;6174792;23;20084;-88
2022/10/02 09:20:12;;;;;;;17.50;6.07;;;;;;;15.35;100.00;101745.44;6179881;23;20005;-89
2022/10/02 09:23:05;;;;;;;18.85;6.20;;;;;;;15.34;100.00;101740.28;6180277;23;20029;-89
2022/10/02 09:25:37;;;;;;;16.55;5.78;;;;;;;15.30;100.00;101734.25;6179317;23;20004;-89
2022/10/02 09:28:23;;;;;;;20.92;6.07;;;;;;;15.40;100.00;101735.72;6180518;23;20005;-89
2022/10/02 09:31:30;;;;;;;15.55;5.47;;;;;;;15.51;100.00;101745.84;6180024;23;20438;-88
2022/10/02 09:34:33;;;;;;;18.55;5.35;;;;;;;15.55;100.00;101739.69;6181379;23;20005;-89
2022/10/02 09:37:32;;;;;;;16.83;4.78;;;;;;;15.55;100.00;101744.91;6183125;23;20001;-89
2022/10/02 09:40:00;;;;;;;19.92;5.10;;;;;;;15.56;100.00;101741.34;6181526;23;20428;-89
2022/10/02 09:42:38;;;;;;;20.33;4.68;;;;;;;15.57;100.00;101748.31;6182510;23;20012;-89
2022/10/02 09:45:25;;;;;;;16.45;4.38;;;;;;;15.62;100.00;101749.03;6180847;23;20386;-89
2022/10/02 09:48:30;;;;;;;14.88;4.72;;;;;;;15.69;100.00;101749.72;6182790;23;20005;-90
2022/10/02 09:51:39;;;;;;;14.70;4.00;;;;;;;15.83;100.00;101750.13;6182988;23;20001;-92
2022/10/02 09:54:26;;;;;;;17.40;3.80;;;;;;;15.96;100.00;101761.06;6183087;23;20054;-91
2022/10/02 09:56:59;;;;;;;17.02;4.10;;;;;;;16.01;99.11;101764.41;6181686;23;20005;-91
2022/10/02 09:59:53;;;;;;;16.27;4.53;;;;;;;16.12;99.18;101760.53;6182567;23;20005;-91
2022/10/02 10:02:50;;;;;;;13.88;4.22;;;;;;;16.14;98.88;101766.56;6181559;23;20386;-92
2022/10/02 10:05:33;;;;;;;16.45;3.90;;;;;;;16.12;98.17;101768.38;6182639;23;20001;-92
2022/10/02 10:08:35;;;;;;;15.57;3.25;;;;;;;16.15;99.33;101764.81;6181515;23;20385;-91
2022/10/02 10:11:12;;;;;;;12.93;3.22;;;;;;;16.15;95.67;101764.81;6180936;23;20020;-91
2022/10/02 10:14:08;;;;;;;12.98;2.95;;;;;;;16.23;99.18;101764.56;6182763;23;20032;-93
2022/10/02 10:17:07;;;;;;;14.95;3.63;;;;;;;16.31;98.17;101766.00;6183299;23;20363;-92
2022/10/02 10:20:05;;;;;;;15.70;3.70;;;;;;;16.43;98.21;101756.94;6181162;23;20147;-91
2022/10/02 10:22:44;;;;;;;20.38;3.97;;;;;;;16.65;98.32;101770.19;6183114;23;20001;-92
2022/10/02 10:25:49;;;;;;;17.45;3.72;;;;;;;16.85;96.26;101775.59;6182457;23;20012;-91
2022/10/02 10:28:37;;;;;;;14.57;3.30;;;;;;;16.82;93.40;101784.41;6183068;23;19997;-91
2022/10/02 10:31:36;;;;;;;11.13;3.30;;;;;;;16.67;93.18;101791.91;6180839;23;20024;-91
2022/10/02 10:34:29;;;;;;;12.98;3.22;;;;;;;16.39;92.31;101794.56;6180875;23;20435;-91
2022/10/02 10:40:14;;;;;;;10.85;2.85;;;;;;;16.13;94.93;101811.09;6182438;23;20067;-91
2022/10/02 10:43:03;;;;;;;14.80;3.45;;;;;;;16.11;93.16;101811.13;6182724;23;20011;-92
2022/10/02 10:45:47;;;;;;;13.65;3.00;;;;;;;16.09;93.14;101814.72;6180571;23;20359;-92
2022/10/02 10:48:44;;;;;;;16.55;3.75;;;;;;;16.08;93.20;101808.63;6182046;23;20059;-91
2022/10/02 10:51:15;;;;;;;14.40;3.13;;;;;;;15.98;91.32;101817.63;6180148;23;20040;-93
2022/10/02 10:53:50;;;;;;;11.38;2.80;;;;;;;15.94;91.04;101812.56;6182093;23;20001;-92
2022/10/02 10:56:36;;;;;;;13.75;3.10;;;;;;;15.95;92.73;101816.91;6181963;23;20008;-92
2022/10/02 10:59:23;;;;;;;13.52;2.50;;;;;;;15.96;90.51;101816.00;6180358;23;20394;-92
2022/10/02 11:02:01;;;;;;;12.20;3.00;;;;;;;16.06;91.39;101814.78;6182363;23;20001;-90
2022/10/02 11:04:42;;;;;;;10.55;2.35;;;;;;;16.20;91.73;101805.63;6181795;23;20419;-90
2022/10/02 11:07:25;;;;;;;14.50;2.60;;;;;;;16.37;90.58;101807.72;6181644;23;20005;-91
2022/10/02 11:10:19;;;;;;;14.65;2.45;;;;;;;16.55;88.70;101816.72;6182527;23;20055;-90
2022/10/02 11:13:15;;;;;;;13.48;2.50;;;;;;;16.80;88.69;101816.78;6181152;23;20075;-92
2022/10/02 11:16:12;;;;;;;15.00;2.33;;;;;;;16.91;90.03;101812.91;6182155;23;20024;-90
2022/10/02 11:19:04;;;;;;;12.70;2.92;;;;;;;17.03;86.13;101819.47;6183682;23;20020;-90
2022/10/02 11:21:41;;;;;;;12.57;2.85;;;;;;;17.07;83.65;101821.06;6180477;23;20005;-91
2022/10/02 11:24:29;;;;;;;16.27;3.22;;;;;;;17.07;82.84;101821.06;6181848;23;20430;-90
2022/10/02 11:27:24;;;;;;;12.23;2.80;;;;;;;17.11;86.37;101827.94;6189547;23;20005;-91
2022/10/02 11:30:11;;;;;;;14.25;2.70;;;;;;;17.08;85.12;101825.41;6181441;23;20009;-88
2022/10/02 11:33:09;;;;;;;16.85;2.90;;;;;;;17.09;84.86;101836.72;6181574;23;20024;-89
2022/10/02 11:35:59;;;;;;;13.88;2.70;;;;;;;17.01;83.26;101834.38;6179537;23;20005;-88
2022/10/02 11:38:44;;;;;;;13.93;3.08;;;;;;;16.90;83.44;101837.38;6179366;23;20008;-89
2022/10/02 11:41:38;;;;;;;8.70;2.20;;;;;;;16.80;85.13;101840.34;6179941;23;20326;-89
2022/10/02 11:44:10;;;;;;;9.43;2.30;;;;;;;16.68;84.63;101841.63;6178076;23;20297;-89
2022/10/02 11:47:03;;;;;;;11.43;2.88;;;;;;;16.59;87.17;101842.72;6181516;23;20004;-88
2022/10/02 11:49:48;;;;;;;12.80;2.92;;;;;;;16.49;86.69;101843.94;6181014;23;20387;-89
2022/10/02 11:52:29;;;;;;;14.27;2.60;;;;;;;16.41;88.92;101842.47;6180978;23;20383;-89
2022/10/02 11:54:57;;;;;;;13.70;2.85;;;;;;;16.38;88.05;101846.03;6179125;23;20088;-89
2022/10/02 11:57:46;;;;;;;14.10;2.80;;;;;;;16.42;85.63;101850.28;6179621;23;20080;-89
2022/10/02 12:00:35;;;;;;;9.80;2.40;;;;;;;16.52;87.29;101849.06;6180869;23;20008;-88
2022/10/02 12:03:43;;;;;;;11.68;2.40;;;;;;;16.68;87.25;101851.22;6181468;23;20575;-89
2022/10/02 12:06:28;;;;;;;10.43;2.63;;;;;;;16.72;85.90;101853.69;6169615;23;20013;-88
2022/10/02 12:09:18;;;;;;;10.98;2.72;;;;;;;16.78;86.90;101852.66;6181552;23;20109;-89
2022/10/02 12:12:21;;;;;;;9.82;2.30;;;;;;;16.91;86.30;101857.44;6181052;23;20029;-89
2022/10/02 12:15:08;;;;;;;10.93;2.40;;;;;;;17.01;83.90;101851.84;6181293;23;20007;-88
2022/10/02 12:17:52;;;;;;;12.43;2.72;;;;;;;17.09;84.04;101852.44;6180928;23;20005;-88
2022/10/02 12:29:42;;;;;;;11.63;2.25;;;;;;;17.17;80.83;101861.78;6180739;23;20339;-89